Blossom, Texas
Current Conditions -  °F | °C
As of 12:15 AM on Thursday 29 Jan 2015 (Local Time) from KPRX Reporting Station
Clear Clear  
Wind Chill: 61°   Ceiling: Unl
Heat Index: 61°   Visibility: 10mi
Dew Point: 41°   Wind: 9mph
Humidity: 48%   Direction: 210°SSW
Pressure: 30.04"   Gusts: NA
Location:  33.66°N, 95.39°W
Report Text: KPRX 290615Z 21008KT 10SM CLR 16/05 A3004 RMK AO1
Loading
Personal Weather Stations






























Interactive Weather Map New forecast layout! Learn more

10-Day Weather Forecast

Advertisements
Track Severe Weather on mobile